createdAt,value
2023-01-19T00:00:42.545Z,0.00
2023-01-19T00:01:42.437Z,0.00
2023-01-19T00:02:42.454Z,0.00
2023-01-19T00:03:42.402Z,0.00
2023-01-19T00:04:42.403Z,0.00
2023-01-19T00:05:42.395Z,0.00
2023-01-19T00:06:42.464Z,0.00
2023-01-19T00:07:42.416Z,0.00
2023-01-19T00:08:42.384Z,0.00
2023-01-19T00:09:42.376Z,0.00
2023-01-19T00:10:42.397Z,0.00
2023-01-19T00:11:42.381Z,0.00
2023-01-19T00:12:42.409Z,0.00
2023-01-19T00:13:42.378Z,0.00
2023-01-19T00:14:42.380Z,0.00
2023-01-19T00:15:42.330Z,0.00
2023-01-19T00:16:42.335Z,0.00
2023-01-19T00:17:42.360Z,0.00
2023-01-19T00:18:42.349Z,0.00
2023-01-19T00:19:42.344Z,0.00
2023-01-19T00:20:42.308Z,0.00
2023-01-19T00:21:42.298Z,0.00
2023-01-19T00:22:42.307Z,0.00
2023-01-19T00:23:42.282Z,0.00
2023-01-19T00:24:42.334Z,0.00
2023-01-19T00:25:42.490Z,0.00
2023-01-19T00:26:42.260Z,0.00
2023-01-19T00:27:42.245Z,0.00
2023-01-19T00:28:42.280Z,0.00
2023-01-19T00:29:42.255Z,0.00
2023-01-19T00:30:42.325Z,0.00
2023-01-19T00:31:42.299Z,0.00
2023-01-19T00:32:42.247Z,0.00
2023-01-19T00:33:42.204Z,0.00
2023-01-19T00:34:42.205Z,0.00
2023-01-19T00:35:42.239Z,0.00
2023-01-19T00:36:42.446Z,0.00
2023-01-19T00:37:42.197Z,0.00
2023-01-19T00:38:42.222Z,0.00
2023-01-19T00:39:42.162Z,0.00
2023-01-19T00:40:42.174Z,0.00
2023-01-19T00:41:42.242Z,0.00
2023-01-19T00:42:42.223Z,0.00
2023-01-19T00:43:42.143Z,0.00
2023-01-19T00:44:42.154Z,0.00
2023-01-19T00:45:42.170Z,0.00
2023-01-19T00:46:42.129Z,0.00
2023-01-19T00:47:42.138Z,0.00
2023-01-19T00:48:42.165Z,0.00
2023-01-19T00:49:42.121Z,0.00
2023-01-19T00:50:42.101Z,0.00
2023-01-19T00:51:42.115Z,0.00
2023-01-19T00:52:42.106Z,0.00
2023-01-19T00:53:42.091Z,0.00
2023-01-19T00:54:42.115Z,0.00
2023-01-19T00:55:42.067Z,0.00
2023-01-19T00:56:42.063Z,0.00
2023-01-19T00:57:42.065Z,0.00
2023-01-19T00:58:42.059Z,0.00
2023-01-19T00:59:42.067Z,0.00
2023-01-19T01:00:42.117Z,0.00
2023-01-19T01:01:45.198Z,0.00
2023-01-19T01:02:42.230Z,0.00
2023-01-19T01:03:42.023Z,0.00
2023-01-19T01:04:42.008Z,0.00
2023-01-19T01:05:41.998Z,0.00
2023-01-19T01:06:42.061Z,0.00
2023-01-19T01:07:41.996Z,0.00
2023-01-19T01:08:41.982Z,0.00
2023-01-19T01:09:42.018Z,0.00
2023-01-19T01:10:41.962Z,0.00
2023-01-19T01:11:41.990Z,0.00
2023-01-19T01:12:42.017Z,0.00
2023-01-19T01:13:42.978Z,0.00
2023-01-19T01:14:41.949Z,0.00
2023-01-19T01:15:41.971Z,0.00
2023-01-19T01:16:41.992Z,0.00
2023-01-19T01:17:41.958Z,0.00
2023-01-19T01:18:42.010Z,0.00
2023-01-19T01:19:41.937Z,0.00
2023-01-19T01:20:41.945Z,0.00
2023-01-19T01:21:41.950Z,0.00
2023-01-19T01:22:41.931Z,0.00
2023-01-19T01:23:41.929Z,0.00
2023-01-19T01:24:41.952Z,0.00
2023-01-19T01:25:41.895Z,0.00
2023-01-19T01:26:41.895Z,0.00
2023-01-19T01:27:41.894Z,0.00
2023-01-19T01:28:41.877Z,0.00
2023-01-19T01:29:41.874Z,0.00
2023-01-19T01:30:41.919Z,0.00
2023-01-19T01:31:41.909Z,0.00
2023-01-19T01:32:41.856Z,0.00
2023-01-19T01:33:42.095Z,0.00
2023-01-19T01:34:41.844Z,0.00
2023-01-19T01:35:41.822Z,0.00
2023-01-19T01:36:41.893Z,0.00
2023-01-19T01:37:41.810Z,0.00
2023-01-19T01:38:41.831Z,0.00
2023-01-19T01:39:41.804Z,0.00
2023-01-19T01:40:41.822Z,0.00
2023-01-19T01:41:41.781Z,0.00
2023-01-19T01:42:42.065Z,0.00
2023-01-19T01:43:41.799Z,0.00
2023-01-19T01:44:41.770Z,0.00
2023-01-19T01:46:02.863Z,0.00
2023-01-19T01:46:41.770Z,0.00
2023-01-19T01:47:41.759Z,0.00
2023-01-19T01:48:41.815Z,0.00
2023-01-19T01:49:41.727Z,0.00
2023-01-19T01:50:41.737Z,0.00
2023-01-19T01:51:41.729Z,0.00
2023-01-19T01:52:41.746Z,0.00
2023-01-19T01:53:41.710Z,0.00
2023-01-19T01:54:41.859Z,0.00
2023-01-19T01:55:41.699Z,0.00
2023-01-19T01:56:41.732Z,0.00
2023-01-19T01:57:41.687Z,0.00
2023-01-19T01:58:41.702Z,0.00
2023-01-19T01:59:41.692Z,0.00
2023-01-19T02:00:41.711Z,0.00
2023-01-19T02:01:41.764Z,0.00
2023-01-19T02:02:41.676Z,0.00
2023-01-19T02:03:41.714Z,0.00
2023-01-19T02:04:41.659Z,0.00
2023-01-19T02:05:41.628Z,0.00
2023-01-19T02:06:41.697Z,0.00
2023-01-19T02:07:41.651Z,0.00
2023-01-19T02:08:41.614Z,0.00
2023-01-19T02:09:41.639Z,0.00
2023-01-19T02:10:41.627Z,0.00
2023-01-19T02:11:41.619Z,0.00
2023-01-19T02:12:41.674Z,0.00
2023-01-19T02:13:41.602Z,0.00
2023-01-19T02:14:41.588Z,0.00
2023-01-19T02:15:41.583Z,0.00
2023-01-19T02:16:41.588Z,0.00
2023-01-19T02:17:41.581Z,0.00
2023-01-19T02:18:41.605Z,0.00
2023-01-19T02:19:41.541Z,0.00
2023-01-19T02:20:41.568Z,0.00
2023-01-19T02:21:41.535Z,0.00
2023-01-19T02:22:41.525Z,0.00
2023-01-19T02:23:41.553Z,0.00
2023-01-19T02:24:41.574Z,0.00
2023-01-19T02:25:41.511Z,0.00
2023-01-19T02:26:41.504Z,0.00
2023-01-19T02:27:41.509Z,0.00
2023-01-19T02:28:41.462Z,0.00
2023-01-19T02:29:41.508Z,0.00
2023-01-19T02:30:41.561Z,0.00
2023-01-19T02:31:41.483Z,0.00
2023-01-19T02:32:41.470Z,0.00
2023-01-19T02:33:41.458Z,0.00
2023-01-19T02:34:41.453Z,0.00
2023-01-19T02:35:41.497Z,0.00
2023-01-19T02:36:41.473Z,0.00
2023-01-19T02:37:41.507Z,0.00
2023-01-19T02:38:41.428Z,0.00
2023-01-19T02:39:41.443Z,0.00
2023-01-19T02:40:41.411Z,0.00
2023-01-19T02:41:41.409Z,0.00
2023-01-19T02:42:41.906Z,0.00
2023-01-19T02:43:41.415Z,0.00
2023-01-19T02:44:41.389Z,0.00
2023-01-19T02:45:41.381Z,0.00
2023-01-19T02:46:41.380Z,0.00
2023-01-19T02:47:41.356Z,0.00
2023-01-19T02:48:41.404Z,0.00
2023-01-19T02:49:41.365Z,0.00
2023-01-19T02:50:41.337Z,0.00
2023-01-19T02:51:41.335Z,0.00
2023-01-19T02:52:41.333Z,0.00
2023-01-19T02:53:41.342Z,0.00
2023-01-19T02:54:41.366Z,0.00
2023-01-19T02:55:41.290Z,0.00
2023-01-19T02:56:41.307Z,0.00
2023-01-19T02:57:41.302Z,0.00
2023-01-19T02:58:41.296Z,0.00
2023-01-19T02:59:41.295Z,0.00
2023-01-19T03:00:41.346Z,0.00
2023-01-19T03:01:41.380Z,0.00
2023-01-19T03:02:41.275Z,0.00
2023-01-19T03:03:41.262Z,0.00
2023-01-19T03:04:41.263Z,0.00
2023-01-19T03:05:41.240Z,0.00
2023-01-19T03:06:41.306Z,0.00
2023-01-19T03:07:41.237Z,0.00
2023-01-19T03:08:41.223Z,0.00
2023-01-19T03:09:41.237Z,0.00
2023-01-19T03:10:41.209Z,0.00
2023-01-19T03:11:41.210Z,0.00
2023-01-19T03:12:41.329Z,0.00
2023-01-19T03:13:41.190Z,0.00
2023-01-19T03:14:41.228Z,0.00
2023-01-19T03:15:41.245Z,0.00
2023-01-19T03:16:41.246Z,0.00
2023-01-19T03:17:41.147Z,0.00
2023-01-19T03:18:41.204Z,0.00
2023-01-19T03:19:41.166Z,0.00
2023-01-19T03:20:41.145Z,0.00
2023-01-19T03:21:41.158Z,0.00
2023-01-19T03:22:41.134Z,0.00
2023-01-19T03:23:41.139Z,0.00
2023-01-19T03:24:41.197Z,0.00
2023-01-19T03:25:41.107Z,0.00
2023-01-19T03:26:41.108Z,0.00
2023-01-19T03:27:41.164Z,0.00
2023-01-19T03:28:41.143Z,0.00
2023-01-19T03:29:41.097Z,0.00
2023-01-19T03:30:41.202Z,0.00
2023-01-19T03:31:41.101Z,0.00
2023-01-19T03:32:41.095Z,0.00
2023-01-19T03:33:41.046Z,0.00
2023-01-19T03:34:41.069Z,0.00
2023-01-19T03:35:41.063Z,0.00
2023-01-19T03:36:41.074Z,0.00
2023-01-19T03:37:41.054Z,0.00
2023-01-19T03:38:41.033Z,0.00
2023-01-19T03:39:41.059Z,0.00
2023-01-19T03:40:41.019Z,0.00
2023-01-19T03:41:41.015Z,0.00
2023-01-19T03:42:41.068Z,0.00
2023-01-19T03:43:41.071Z,0.00
2023-01-19T03:44:41.019Z,0.00
2023-01-19T03:45:40.994Z,0.00
2023-01-19T03:46:40.979Z,0.00
2023-01-19T03:47:51.108Z,0.00
2023-01-19T03:48:42.959Z,0.00
2023-01-19T03:49:40.963Z,0.00
2023-01-19T03:50:40.941Z,0.00
2023-01-19T03:51:40.965Z,0.00
2023-01-19T03:52:40.953Z,0.00
2023-01-19T03:53:40.920Z,0.00
2023-01-19T03:54:40.954Z,0.00
2023-01-19T03:55:40.899Z,0.00
2023-01-19T03:56:40.911Z,0.00
2023-01-19T03:57:40.912Z,0.00
2023-01-19T03:58:40.901Z,0.00
2023-01-19T03:59:40.878Z,0.00
2023-01-19T04:00:40.925Z,0.00
2023-01-19T04:01:40.990Z,0.00
2023-01-19T04:02:40.918Z,0.00
2023-01-19T04:03:40.861Z,0.00
2023-01-19T04:04:40.846Z,0.00
2023-01-19T04:05:40.835Z,0.00
2023-01-19T04:06:40.886Z,0.00
2023-01-19T04:07:40.849Z,0.00
2023-01-19T04:08:40.840Z,0.00
2023-01-19T04:09:40.794Z,0.00
2023-01-19T04:10:40.805Z,0.00
2023-01-19T04:11:40.821Z,0.00
2023-01-19T04:12:40.845Z,0.00
2023-01-19T04:13:40.786Z,0.00
2023-01-19T04:14:40.792Z,0.00
2023-01-19T04:15:40.793Z,0.00
2023-01-19T04:16:40.781Z,0.00
2023-01-19T04:17:40.796Z,0.00
2023-01-19T04:18:40.829Z,0.00
2023-01-19T04:19:40.780Z,0.00
2023-01-19T04:20:40.743Z,0.00
2023-01-19T04:21:40.763Z,0.00
2023-01-19T04:22:40.753Z,0.00
2023-01-19T04:23:40.739Z,0.00
2023-01-19T04:24:40.780Z,0.00
2023-01-19T04:25:40.721Z,0.00
2023-01-19T04:26:40.712Z,0.00
2023-01-19T04:27:40.714Z,0.00
2023-01-19T04:28:40.715Z,0.00
2023-01-19T04:29:40.683Z,0.00
2023-01-19T04:30:40.745Z,0.00
2023-01-19T04:31:40.662Z,0.00
2023-01-19T04:32:40.692Z,0.00
2023-01-19T04:33:40.671Z,0.00
2023-01-19T04:34:40.661Z,0.00
2023-01-19T04:35:40.648Z,0.00
2023-01-19T04:36:40.698Z,0.00
2023-01-19T04:37:40.611Z,0.00
2023-01-19T04:38:40.628Z,0.00
2023-01-19T04:39:40.648Z,0.00
2023-01-19T04:40:40.677Z,0.00
2023-01-19T04:41:40.620Z,0.00
2023-01-19T04:42:40.679Z,0.00
2023-01-19T04:43:40.607Z,0.00
2023-01-19T04:44:40.607Z,0.00
2023-01-19T04:45:40.644Z,0.00
2023-01-19T04:46:40.619Z,0.00
2023-01-19T04:47:40.577Z,0.00
2023-01-19T04:48:41.395Z,0.00
2023-01-19T04:49:40.532Z,0.00
2023-01-19T04:50:40.561Z,0.00
2023-01-19T04:51:40.546Z,0.00
2023-01-19T04:52:40.561Z,0.00
2023-01-19T04:53:40.557Z,0.00
2023-01-19T04:54:40.830Z,0.00
2023-01-19T04:55:40.530Z,0.00
2023-01-19T04:56:40.509Z,0.00
2023-01-19T04:57:40.489Z,0.00
2023-01-19T04:58:40.501Z,0.00
2023-01-19T04:59:40.499Z,0.00
2023-01-19T05:00:40.545Z,0.00
2023-01-19T05:01:40.472Z,0.00
2023-01-19T05:02:40.497Z,0.00
2023-01-19T05:03:40.475Z,0.00
2023-01-19T05:04:40.433Z,0.00
2023-01-19T05:05:40.474Z,0.00
2023-01-19T05:06:40.591Z,0.00
2023-01-19T05:07:40.442Z,0.00
2023-01-19T05:08:40.408Z,0.00
2023-01-19T05:09:40.436Z,0.00
2023-01-19T05:10:40.401Z,0.00
2023-01-19T05:11:40.384Z,0.00
2023-01-19T05:12:40.473Z,0.00
2023-01-19T05:13:40.432Z,0.00
2023-01-19T05:14:40.411Z,0.00
2023-01-19T05:15:40.356Z,0.00
2023-01-19T05:16:40.361Z,0.00
2023-01-19T05:17:40.391Z,0.00
2023-01-19T05:18:40.386Z,0.00
2023-01-19T05:19:40.350Z,0.00
2023-01-19T05:20:40.354Z,0.00
2023-01-19T05:21:40.331Z,0.00
2023-01-19T05:22:40.305Z,0.00
2023-01-19T05:23:40.336Z,0.00
2023-01-19T05:24:40.375Z,0.00
2023-01-19T05:25:40.322Z,0.00
2023-01-19T05:26:40.307Z,0.00
2023-01-19T05:27:40.330Z,0.00
2023-01-19T05:28:40.301Z,0.00
2023-01-19T05:29:40.272Z,0.00
2023-01-19T05:30:40.362Z,0.00
2023-01-19T05:31:40.275Z,0.00
2023-01-19T05:32:40.283Z,0.00
2023-01-19T05:33:40.256Z,0.00
2023-01-19T05:34:40.245Z,0.00
2023-01-19T05:35:40.275Z,0.00
2023-01-19T05:36:40.263Z,0.00
2023-01-19T05:37:40.236Z,0.00
2023-01-19T05:38:40.214Z,0.00
2023-01-19T05:39:40.225Z,0.00
2023-01-19T05:40:40.209Z,0.00
2023-01-19T05:41:40.203Z,0.00
2023-01-19T05:42:40.283Z,0.00
2023-01-19T05:43:40.191Z,0.00
2023-01-19T05:44:40.189Z,0.00
2023-01-19T05:45:40.186Z,0.00
2023-01-19T05:46:40.208Z,0.00
2023-01-19T05:47:40.178Z,0.00
2023-01-19T05:48:40.177Z,0.00
2023-01-19T05:49:40.121Z,0.00
2023-01-19T05:50:40.131Z,0.00
2023-01-19T05:51:40.119Z,0.00
2023-01-19T05:52:40.100Z,0.00
2023-01-19T05:53:40.110Z,0.00
2023-01-19T05:54:40.137Z,0.00
2023-01-19T05:55:40.085Z,0.00
2023-01-19T05:56:40.090Z,0.00
2023-01-19T05:57:40.100Z,0.00
2023-01-19T05:58:40.064Z,0.00
2023-01-19T05:59:40.065Z,0.00
2023-01-19T06:00:40.416Z,0.00
2023-01-19T06:01:40.517Z,0.00
2023-01-19T06:02:40.046Z,0.00
2023-01-19T06:03:40.049Z,0.00
2023-01-19T06:04:40.017Z,0.00
2023-01-19T06:05:40.036Z,0.00
2023-01-19T06:06:40.067Z,0.00
2023-01-19T06:07:39.997Z,0.00
2023-01-19T06:08:39.981Z,0.00
2023-01-19T06:09:40.000Z,0.00
2023-01-19T06:10:39.992Z,0.00
2023-01-19T06:11:39.987Z,0.00
2023-01-19T06:12:40.087Z,0.00
2023-01-19T06:13:41.370Z,0.00
2023-01-19T06:14:39.960Z,0.00
2023-01-19T06:15:39.965Z,0.00
2023-01-19T06:16:39.985Z,0.00
2023-01-19T06:17:39.938Z,0.00
2023-01-19T06:18:41.958Z,0.00
2023-01-19T06:19:39.975Z,0.00
2023-01-19T06:20:39.914Z,0.00
2023-01-19T06:21:39.921Z,1.00
2023-01-19T06:22:39.907Z,0.00
2023-01-19T06:23:39.889Z,0.00
2023-01-19T06:24:39.921Z,0.00
2023-01-19T06:25:39.886Z,0.00
2023-01-19T06:26:39.874Z,0.00
2023-01-19T06:27:39.885Z,0.00
2023-01-19T06:28:39.872Z,0.00
2023-01-19T06:29:39.872Z,0.00
2023-01-19T06:30:39.958Z,0.00
2023-01-19T06:31:39.899Z,0.00
2023-01-19T06:32:39.850Z,0.00
2023-01-19T06:33:39.842Z,0.00
2023-01-19T06:34:39.844Z,0.00
2023-01-19T06:35:39.824Z,0.00
2023-01-19T06:36:39.921Z,1.00
2023-01-19T06:37:39.804Z,1.00
2023-01-19T06:38:39.807Z,1.00
2023-01-19T06:39:39.798Z,1.00
2023-01-19T06:40:39.791Z,0.00
2023-01-19T06:41:39.779Z,0.00
2023-01-19T06:42:39.840Z,0.00
2023-01-19T06:43:39.764Z,1.00
2023-01-19T06:44:39.761Z,1.00
2023-01-19T06:45:39.773Z,1.00
2023-01-19T06:46:39.743Z,1.00
2023-01-19T06:47:39.739Z,1.00
2023-01-19T06:48:39.799Z,1.00
2023-01-19T06:49:39.735Z,2.00
2023-01-19T06:50:39.716Z,2.00
2023-01-19T06:51:39.731Z,1.00
2023-01-19T06:52:39.698Z,2.00
2023-01-19T06:53:39.702Z,2.00
2023-01-19T06:54:39.732Z,2.00
2023-01-19T06:55:39.722Z,3.00
2023-01-19T06:56:39.681Z,3.00
2023-01-19T06:57:39.651Z,5.00
2023-01-19T06:58:39.657Z,5.00
2023-01-19T06:59:39.668Z,5.00
2023-01-19T07:00:39.700Z,6.00
2023-01-19T07:01:39.753Z,6.00
2023-01-19T07:02:39.759Z,6.00
2023-01-19T07:03:39.621Z,6.00
2023-01-19T07:04:39.640Z,6.00
2023-01-19T07:05:39.617Z,6.00
2023-01-19T07:06:39.895Z,6.00
2023-01-19T07:07:39.649Z,7.00
2023-01-19T07:08:39.578Z,9.00
2023-01-19T07:09:39.617Z,10.00
2023-01-19T07:11:24.590Z,12.00
2023-01-19T07:11:40.622Z,14.00
2023-01-19T07:12:39.565Z,16.00
2023-01-19T07:13:39.573Z,19.00
2023-01-19T07:14:39.551Z,24.00
2023-01-19T07:15:39.592Z,27.00
2023-01-19T07:16:39.539Z,31.00
2023-01-19T07:17:39.607Z,39.00
2023-01-19T07:18:39.536Z,42.00
2023-01-19T07:19:39.522Z,47.00
2023-01-19T07:20:39.490Z,51.00
2023-01-19T07:21:39.516Z,57.00
2023-01-19T07:22:39.505Z,60.00
2023-01-19T07:23:39.529Z,68.00
2023-01-19T07:24:39.496Z,74.00
2023-01-19T07:25:39.490Z,82.00
2023-01-19T07:26:39.456Z,94.00
2023-01-19T07:27:39.462Z,107.00
2023-01-19T07:28:39.466Z,121.00
2023-01-19T07:29:39.511Z,133.00
2023-01-19T07:30:39.494Z,142.00
2023-01-19T07:31:39.532Z,154.00
2023-01-19T07:32:39.422Z,165.00
2023-01-19T07:33:39.425Z,183.00
2023-01-19T07:34:39.414Z,199.00
2023-01-19T07:35:39.469Z,206.00
2023-01-19T07:36:39.389Z,213.00
2023-01-19T07:37:39.404Z,221.00
2023-01-19T07:38:39.407Z,231.00
2023-01-19T07:39:39.369Z,235.00
2023-01-19T07:40:39.385Z,244.00
2023-01-19T07:41:39.421Z,255.00
2023-01-19T07:42:39.375Z,270.00
2023-01-19T07:43:39.337Z,284.00
2023-01-19T07:44:39.381Z,290.00
2023-01-19T07:45:39.370Z,302.00
2023-01-19T07:46:39.333Z,310.00
2023-01-19T07:47:39.396Z,320.00
2023-01-19T07:48:39.344Z,340.00
2023-01-19T07:49:39.349Z,353.00
2023-01-19T07:50:39.307Z,362.00
2023-01-19T07:51:39.330Z,378.00
2023-01-19T07:52:39.274Z,404.00
2023-01-19T07:53:39.375Z,420.00
2023-01-19T07:54:39.292Z,434.00
2023-01-19T07:55:39.280Z,435.00
2023-01-19T07:56:39.273Z,440.00
2023-01-19T07:57:39.273Z,447.00
2023-01-19T07:58:39.263Z,453.00
2023-01-19T07:59:39.290Z,459.00
2023-01-19T08:00:39.245Z,477.00
2023-01-19T08:01:39.330Z,491.00
2023-01-19T08:02:39.201Z,507.00
2023-01-19T08:03:39.208Z,523.00
2023-01-19T08:04:39.205Z,536.00
2023-01-19T08:05:39.285Z,555.00
2023-01-19T08:06:39.198Z,568.00
2023-01-19T08:07:39.211Z,576.00
2023-01-19T08:08:39.174Z,578.00
2023-01-19T08:09:39.175Z,582.00
2023-01-19T08:10:39.164Z,580.00
2023-01-19T08:11:39.580Z,586.00
2023-01-19T08:12:39.144Z,595.00
2023-01-19T08:13:39.152Z,605.00
2023-01-19T08:14:39.153Z,610.00
2023-01-19T08:15:39.173Z,612.00
2023-01-19T08:16:39.103Z,612.00
2023-01-19T08:17:39.217Z,608.00
2023-01-19T08:18:39.091Z,602.00
2023-01-19T08:19:41.362Z,600.00
2023-01-19T08:20:39.104Z,595.00
2023-01-19T08:21:39.148Z,581.00
2023-01-19T08:22:39.082Z,566.00
2023-01-19T08:23:39.204Z,548.00
2023-01-19T08:24:39.055Z,525.00
2023-01-19T08:25:39.064Z,510.00
2023-01-19T08:26:39.047Z,495.00
2023-01-19T08:27:39.031Z,504.00
2023-01-19T08:28:39.025Z,521.00
2023-01-19T08:29:39.086Z,553.00
2023-01-19T08:30:39.053Z,618.00
2023-01-19T08:31:39.147Z,697.00
2023-01-19T08:32:39.031Z,784.00
2023-01-19T08:33:38.995Z,881.00
2023-01-19T08:34:39.007Z,974.00
2023-01-19T08:35:39.016Z,1058.00
2023-01-19T08:36:38.996Z,1138.00
2023-01-19T08:37:38.987Z,1200.00
2023-01-19T08:38:38.965Z,1244.00
2023-01-19T08:39:38.952Z,1274.00
2023-01-19T08:40:38.967Z,1255.00
2023-01-19T08:41:39.033Z,1205.00
2023-01-19T08:42:38.973Z,1128.00
2023-01-19T08:43:38.925Z,1040.00
2023-01-19T08:44:43.872Z,958.00
2023-01-19T08:45:39.904Z,897.00
2023-01-19T08:46:38.923Z,844.00
2023-01-19T08:47:38.996Z,802.00
2023-01-19T08:48:39.984Z,752.00
2023-01-19T08:49:38.892Z,723.00
2023-01-19T08:50:38.913Z,768.00
2023-01-19T08:51:38.882Z,776.00
2023-01-19T08:52:38.858Z,776.00
2023-01-19T08:53:38.881Z,749.00
2023-01-19T08:54:38.855Z,698.00
2023-01-19T08:55:38.867Z,640.00
2023-01-19T08:56:38.823Z,596.00
2023-01-19T08:57:38.818Z,547.00
2023-01-19T08:58:38.827Z,493.00
2023-01-19T08:59:38.863Z,448.00
2023-01-19T09:00:38.787Z,413.00
2023-01-19T09:01:38.976Z,388.00
2023-01-19T09:02:38.889Z,382.00
2023-01-19T09:03:38.799Z,392.00
2023-01-19T09:04:38.774Z,422.00
2023-01-19T09:05:38.880Z,458.00
2023-01-19T09:06:38.758Z,482.00
2023-01-19T09:07:38.753Z,488.00
2023-01-19T09:08:38.776Z,470.00
2023-01-19T09:09:38.775Z,444.00
2023-01-19T09:10:38.735Z,419.00
2023-01-19T09:11:38.787Z,408.00
2023-01-19T09:12:38.715Z,386.00
2023-01-19T09:13:38.706Z,385.00
2023-01-19T09:14:38.711Z,385.00
2023-01-19T09:15:38.705Z,377.00
2023-01-19T09:16:38.700Z,394.00
2023-01-19T09:17:39.017Z,407.00
2023-01-19T09:18:38.680Z,421.00
2023-01-19T09:19:38.677Z,442.00
2023-01-19T09:20:38.670Z,473.00
2023-01-19T09:21:38.654Z,507.00
2023-01-19T09:22:38.649Z,533.00
2023-01-19T09:23:38.691Z,544.00
2023-01-19T09:24:38.649Z,563.00
2023-01-19T09:25:38.620Z,579.00
2023-01-19T09:26:38.615Z,584.00
2023-01-19T09:27:38.626Z,620.00
2023-01-19T09:28:38.618Z,633.00
2023-01-19T09:29:38.672Z,632.00
2023-01-19T09:30:38.631Z,631.00
2023-01-19T09:31:38.670Z,602.00
2023-01-19T09:32:38.586Z,666.00
2023-01-19T09:33:38.589Z,667.00
2023-01-19T09:34:38.583Z,621.00
2023-01-19T09:35:38.647Z,677.00
2023-01-19T09:36:38.556Z,646.00
2023-01-19T09:37:38.554Z,644.00
2023-01-19T09:38:38.537Z,714.00
2023-01-19T09:39:38.611Z,717.00
2023-01-19T09:40:39.447Z,741.00
2023-01-19T09:41:38.583Z,732.00
2023-01-19T09:42:38.518Z,728.00
2023-01-19T09:43:38.519Z,757.00
2023-01-19T09:44:38.499Z,790.00
2023-01-19T09:45:38.491Z,844.00
2023-01-19T09:46:38.521Z,862.00
2023-01-19T09:47:38.538Z,823.00
2023-01-19T09:48:38.491Z,778.00
2023-01-19T09:49:38.493Z,801.00
2023-01-19T09:50:38.465Z,894.00
2023-01-19T09:51:38.556Z,1008.00
2023-01-19T09:52:38.456Z,1071.00
2023-01-19T09:53:38.490Z,1093.00
2023-01-19T09:54:38.436Z,1096.00
2023-01-19T09:55:38.426Z,1099.00
2023-01-19T09:56:38.419Z,1109.00
2023-01-19T09:57:38.421Z,1179.00
2023-01-19T09:58:38.420Z,1150.00
2023-01-19T09:59:38.451Z,1210.00
2023-01-19T10:00:38.449Z,1156.00
2023-01-19T10:01:38.446Z,1171.00
2023-01-19T10:02:38.399Z,1305.00
2023-01-19T10:03:38.378Z,1314.00
2023-01-19T10:04:38.373Z,1359.00
2023-01-19T10:05:38.415Z,1391.00
2023-01-19T10:06:38.351Z,1498.00
2023-01-19T10:07:38.348Z,1512.00
2023-01-19T10:08:38.340Z,1552.00
2023-01-19T10:09:38.333Z,1478.00
2023-01-19T10:10:38.326Z,1721.00
2023-01-19T10:11:51.895Z,1571.00
2023-01-19T10:12:39.317Z,1545.00
2023-01-19T10:13:38.317Z,1673.00
2023-01-19T10:14:38.339Z,1707.00
2023-01-19T10:15:38.289Z,1693.00
2023-01-19T10:16:38.270Z,1913.00
2023-01-19T10:17:38.586Z,2004.00
2023-01-19T10:18:38.271Z,2043.00
2023-01-19T10:19:38.302Z,2057.00
2023-01-19T10:20:38.237Z,2202.00
2023-01-19T10:21:38.256Z,2281.00
2023-01-19T10:22:38.251Z,2266.00
2023-01-19T10:23:38.284Z,2133.00
2023-01-19T10:24:38.246Z,2288.00
2023-01-19T10:25:38.305Z,2492.00
2023-01-19T10:26:38.224Z,2402.00
2023-01-19T10:27:38.229Z,2223.00
2023-01-19T10:28:38.222Z,2210.00
2023-01-19T10:29:38.259Z,2339.00
2023-01-19T10:30:38.217Z,2205.00
2023-01-19T10:31:38.265Z,2270.00
2023-01-19T10:32:38.197Z,2259.00
2023-01-19T10:33:38.219Z,2272.00
2023-01-19T10:34:38.148Z,2374.00
2023-01-19T10:35:38.200Z,2454.00
2023-01-19T10:36:38.136Z,2351.00
2023-01-19T10:37:38.117Z,2432.00
2023-01-19T10:38:38.127Z,2524.00
2023-01-19T10:39:38.899Z,2629.00
2023-01-19T10:40:38.123Z,2616.00
2023-01-19T10:41:38.207Z,2761.00
2023-01-19T10:42:38.170Z,2872.00
2023-01-19T10:43:38.133Z,2799.00
2023-01-19T10:44:38.126Z,2812.00
2023-01-19T10:45:38.099Z,3052.00
2023-01-19T10:46:38.127Z,3038.00
2023-01-19T10:47:38.162Z,3223.00
2023-01-19T10:48:38.110Z,3196.00
2023-01-19T10:49:38.127Z,3248.00
2023-01-19T10:50:38.066Z,3153.00
2023-01-19T10:51:38.087Z,3164.00
2023-01-19T10:52:38.028Z,2943.00
2023-01-19T10:53:38.142Z,2899.00
2023-01-19T10:54:38.038Z,2774.00
2023-01-19T10:55:38.178Z,2635.00
2023-01-19T10:56:37.999Z,2408.00
2023-01-19T10:57:38.079Z,2224.00
2023-01-19T10:58:37.982Z,2346.00
2023-01-19T10:59:38.091Z,2169.00
2023-01-19T11:00:38.158Z,2155.00
2023-01-19T11:01:38.246Z,2290.00
2023-01-19T11:02:38.045Z,2341.00
2023-01-19T11:03:37.961Z,2363.00
2023-01-19T11:04:37.939Z,2384.00
2023-01-19T11:05:38.016Z,2301.00
2023-01-19T11:06:37.925Z,2447.00
2023-01-19T11:07:37.935Z,2507.00
2023-01-19T11:08:37.924Z,2344.00
2023-01-19T11:09:37.929Z,2307.00
2023-01-19T11:10:37.905Z,2364.00
2023-01-19T11:11:37.931Z,2323.00
2023-01-19T11:12:37.956Z,2339.00
2023-01-19T11:13:37.904Z,2301.00
2023-01-19T11:14:37.860Z,2262.00
2023-01-19T11:15:37.856Z,2273.00
2023-01-19T11:16:37.921Z,2284.00
2023-01-19T11:17:37.877Z,2274.00
2023-01-19T11:18:37.856Z,2218.00
2023-01-19T11:19:37.811Z,2234.00
2023-01-19T11:20:37.828Z,2301.00
2023-01-19T11:21:37.859Z,2436.00
2023-01-19T11:22:37.858Z,2505.00
2023-01-19T11:23:38.354Z,2492.00
2023-01-19T11:24:37.807Z,2486.00
2023-01-19T11:25:37.900Z,2485.00
2023-01-19T11:26:37.827Z,2579.00
2023-01-19T11:27:37.800Z,2633.00
2023-01-19T11:28:37.816Z,2683.00
2023-01-19T11:29:37.819Z,2680.00
2023-01-19T11:30:37.793Z,2630.00
2023-01-19T11:31:37.780Z,2571.00
2023-01-19T11:32:37.747Z,2560.00
2023-01-19T11:33:37.834Z,2509.00
2023-01-19T11:34:37.768Z,2494.00
2023-01-19T11:35:37.786Z,2405.00
2023-01-19T11:36:37.730Z,2296.00
2023-01-19T11:37:37.738Z,2211.00
2023-01-19T11:38:37.760Z,2100.00
2023-01-19T11:39:37.715Z,1926.00
2023-01-19T11:40:37.688Z,1997.00
2023-01-19T11:41:37.793Z,1995.00
2023-01-19T11:42:37.708Z,1857.00
2023-01-19T11:43:48.525Z,1972.00
2023-01-19T11:44:38.643Z,1983.00
2023-01-19T11:45:37.677Z,1893.00
2023-01-19T11:46:37.664Z,1812.00
2023-01-19T11:47:37.734Z,1823.00
2023-01-19T11:48:37.728Z,2089.00
2023-01-19T11:49:37.735Z,2415.00
2023-01-19T11:50:37.669Z,2652.00
2023-01-19T11:51:37.640Z,2867.00
2023-01-19T11:52:37.631Z,2848.00
2023-01-19T11:53:37.667Z,2821.00
2023-01-19T11:54:37.628Z,2807.00
2023-01-19T11:55:37.610Z,2754.00
2023-01-19T11:56:37.591Z,2738.00
2023-01-19T11:57:37.600Z,2565.00
2023-01-19T11:58:37.611Z,2404.00
2023-01-19T11:59:37.606Z,2297.00
2023-01-19T12:00:37.670Z,2469.00
2023-01-19T12:01:37.552Z,2465.00
2023-01-19T12:02:37.547Z,2444.00
2023-01-19T12:03:37.557Z,2344.00
2023-01-19T12:04:37.550Z,2151.00
2023-01-19T12:05:37.623Z,1969.00
2023-01-19T12:06:37.567Z,1752.00
2023-01-19T12:07:37.523Z,1742.00
2023-01-19T12:08:37.503Z,1662.00
2023-01-19T12:09:37.508Z,1607.00
2023-01-19T12:10:37.506Z,1756.00
2023-01-19T12:11:37.550Z,1754.00
2023-01-19T12:12:37.456Z,1660.00
2023-01-19T12:13:37.467Z,1618.00
2023-01-19T12:14:37.446Z,1735.00
2023-01-19T12:15:37.447Z,1763.00
2023-01-19T12:16:37.525Z,1685.00
2023-01-19T12:17:37.545Z,1622.00
2023-01-19T12:18:37.459Z,1594.00
2023-01-19T12:19:37.546Z,1689.00
2023-01-19T12:20:37.455Z,1834.00
2023-01-19T12:21:37.427Z,1933.00
2023-01-19T12:22:37.402Z,1899.00
2023-01-19T12:23:37.503Z,1747.00
2023-01-19T12:24:37.457Z,1714.00
2023-01-19T12:25:37.401Z,1648.00
2023-01-19T12:26:37.401Z,1630.00
2023-01-19T12:27:37.362Z,1715.00
2023-01-19T12:28:37.420Z,1864.00
2023-01-19T12:29:37.681Z,1928.00
2023-01-19T12:30:37.524Z,2069.00
2023-01-19T12:31:37.502Z,2196.00
2023-01-19T12:32:37.344Z,2215.00
2023-01-19T12:33:37.339Z,2212.00
2023-01-19T12:34:37.353Z,2014.00
2023-01-19T12:35:37.386Z,2080.00
2023-01-19T12:36:37.328Z,2121.00
2023-01-19T12:37:37.337Z,1946.00
2023-01-19T12:38:37.318Z,1920.00
2023-01-19T12:39:37.375Z,1957.00
2023-01-19T12:40:37.321Z,2007.00
2023-01-19T12:41:37.336Z,2007.00
2023-01-19T12:42:37.347Z,1885.00
2023-01-19T12:43:37.295Z,1749.00
2023-01-19T12:44:37.248Z,1662.00
2023-01-19T12:45:37.421Z,1519.00
2023-01-19T12:46:37.278Z,1429.00
2023-01-19T12:47:37.731Z,1433.00
2023-01-19T12:48:37.216Z,1609.00
2023-01-19T12:49:37.201Z,1547.00